UDFLY weather

Campo di Volo Fly Synthesis
Mortegliano (UD), Friuli-Venezia Giulia, Italy

Public forecast

Using degrees Celsius for public forecast. Weather courtesy of forecast.io.

Closest aviation weather report (METAR) to Campo di Volo Fly Synthesis

Report is more than 6 hours old.

Closest report is Rivolto Air Base, 7.7 nm (14.3 km) W. Retrieved 2020/07/03 09:55 UTC (1 day ago):

LIPI 030955Z 05008KT 9999 FEW045 SCT070 BKN100 24/13 Q1012 RMK BKN VIS MIN 9999 WIND THR06 08008KT WIND THR24 07009KT BLU

Closest aviation forecast (TAF) to Campo di Volo Fly Synthesis

Forecast is more than 12 hours old.

Closest forecast is Rivolto Air Base, 7.7 nm (14.3 km) W. Retrieved 2020/01/23 12:24 UTC (5 months ago):

TAF TAF LIPI 231100Z 2312/2324 06010KT CAVOK